Aérodrome :
LOGIN :

S'inscrire | Disclaimer

   EN    FR    IT 

 










Légende :    VFR   VFR Marginal   IFR   IFR Intensif   IFR Très Intensif
Visi : 
Plafond : 
>= 8 km
>= 3000ft
5 à 8 km
1000 à 3000 ft
1500m à 5 km
500 à 1000 ft
800 à 1500m
200 à 500 ft
< 800m
< 200 ft
Symboles :   Orages  Brouillard  Fortes neiges  Fortes précipitations  Vent > 20 kt
SIGMETs :   Divers  Orages  Givrage  Turbulence  Onde Orograph.  Cendres Volcan.







- Altitude de l'aérodrome : 154 ft
- Code IATA : SZZ


EPSC - Szczecin Goleniow

DERNIER METAR :
  • 172100Z 20005KT 170V230 9999 SCT037 04/02 Q1021

METARs EXPIRÉS :
  • 172030Z 21005KT 180V240 9999 BKN042 04/02 Q1022
  • 172000Z 21005KT 9999 BKN040 04/02 Q1022
  • 171930Z 21005KT 9999 SCT040 04/02 Q1022
  • 171900Z 20004KT 170V230 9999 FEW036 04/02 Q1022
  • 171830Z 20003KT 160V230 9999 SCT036 04/02 Q1022

TAF TAF EPSC
Valide du 17 à 18h jusqu'au 18 à 18h UTC


171730Z 1718/1818 VRB04KT CAVOK
BECMG 1718/1722 22010KT
PROB30
TEMPO 1722/1803 4500 BR
TEMPO 1810/1818 24015G28KT
BECMG 1813/1815 BKN014
PROB40
TEMPO 1813/1818 4500 SHRA BKN005 BKN011CB
Pas de NOTAMs connus pour ce terrain.



MET'MAP, la Météo Aéronautique d'un coup d'oeil ! - Copyright ORBIFLY Décembre 2007 - Disclaimer

ORBIFLY MET'MAP TEAM :

Programmation & Développement : Alexandra Zaïnal
Conception & Développement : Baudouin d'Aumeries
Co-Programmation & Développement : Marc-Olivier Méhu
Soutien technique & logistique : Manuel Goepfert

Contact : metmap@orbifly.com




SOURCES & CREDITS :

   NOAA